Terminal Aerodrome Forecast
Issued by NWS

Home | Current Version | Previous Version | Text Only | Print | Product List | Glossary On
Versions: 1 2 3 4 5 6 7 8 9 10 11 12 13 14 15 16 17 18 19 20 21 22 23 24 25 26 27 28 29
000
FTUS44 KHGX 251429 AAA
TAFIAH
TAF AMD
KIAH 251429Z 2514/2618 17010G20KT P6SM BKN025
     FM251600 18013G23KT P6SM SCT025
     FM252000 17013G23KT P6SM BKN035
     FM260300 17013G23KT P6SM SCT015 BKN025
     FM260600 17015KT P6SM BKN015
     FM261500 21015KT P6SM SCT015 BKN025=

USA.gov is the U.S. government's official web portal to all federal, state and local government web resources and services.